sensor_id;sensor_type;location;lat;lon;timestamp;P1;durP1;ratioP1;P2;durP2;ratioP2
23015;SDS011;11674;52.428;13.584;2022-09-09T00:04:34;5.38;;;4.68;;
23015;SDS011;11674;52.428;13.584;2022-09-09T00:07:15;10.20;;;6.47;;
23015;SDS011;11674;52.428;13.584;2022-09-09T00:15:15;7.55;;;4.75;;
23015;SDS011;11674;52.428;13.584;2022-09-09T00:22:57;7.13;;;5.23;;
23015;SDS011;11674;52.428;13.584;2022-09-09T00:25:46;8.05;;;5.40;;
23015;SDS011;11674;52.428;13.584;2022-09-09T00:28:21;6.93;;;5.50;;
23015;SDS011;11674;52.428;13.584;2022-09-09T00:30:56;7.25;;;5.93;;
23015;SDS011;11674;52.428;13.584;2022-09-09T00:33:30;9.35;;;5.55;;
23015;SDS011;11674;52.428;13.584;2022-09-09T00:35:57;5.72;;;4.93;;
23015;SDS011;11674;52.428;13.584;2022-09-09T00:38:33;10.93;;;6.97;;
23015;SDS011;11674;52.428;13.584;2022-09-09T00:41:15;11.55;;;5.57;;
23015;SDS011;11674;52.428;13.584;2022-09-09T00:44:03;8.38;;;4.93;;
23015;SDS011;11674;52.428;13.584;2022-09-09T00:46:56;7.50;;;5.32;;
23015;SDS011;11674;52.428;13.584;2022-09-09T00:49:39;7.28;;;5.13;;
23015;SDS011;11674;52.428;13.584;2022-09-09T00:57:50;10.07;;;6.47;;
23015;SDS011;11674;52.428;13.584;2022-09-09T01:11:25;10.93;;;7.15;;
23015;SDS011;11674;52.428;13.584;2022-09-09T01:29:08;4.97;;;4.22;;
23015;SDS011;11674;52.428;13.584;2022-09-09T01:34:25;10.80;;;5.55;;
23015;SDS011;11674;52.428;13.584;2022-09-09T01:39:39;5.22;;;4.63;;
23015;SDS011;11674;52.428;13.584;2022-09-09T01:42:16;6.78;;;5.03;;
23015;SDS011;11674;52.428;13.584;2022-09-09T01:44:43;9.00;;;4.18;;
23015;SDS011;11674;52.428;13.584;2022-09-09T01:47:15;7.18;;;5.15;;
23015;SDS011;11674;52.428;13.584;2022-09-09T01:50:10;7.00;;;4.40;;
23015;SDS011;11674;52.428;13.584;2022-09-09T01:52:48;7.57;;;4.63;;
23015;SDS011;11674;52.428;13.584;2022-09-09T01:55:32;9.80;;;5.25;;
23015;SDS011;11674;52.428;13.584;2022-09-09T02:01:46;11.45;;;4.90;;
23015;SDS011;11674;52.428;13.584;2022-09-09T02:03:53;8.05;;;4.57;;
23015;SDS011;11674;52.428;13.584;2022-09-09T02:06:30;6.53;;;4.97;;
23015;SDS011;11674;52.428;13.584;2022-09-09T02:09:17;7.57;;;4.95;;
23015;SDS011;11674;52.428;13.584;2022-09-09T02:11:57;10.40;;;5.10;;
23015;SDS011;11674;52.428;13.584;2022-09-09T02:14:41;6.13;;;5.25;;
23015;SDS011;11674;52.428;13.584;2022-09-09T02:17:19;7.78;;;4.90;;
23015;SDS011;11674;52.428;13.584;2022-09-09T02:20:09;8.13;;;5.50;;
23015;SDS011;11674;52.428;13.584;2022-09-09T02:22:54;8.13;;;5.57;;
23015;SDS011;11674;52.428;13.584;2022-09-09T02:25:37;9.20;;;5.15;;
23015;SDS011;11674;52.428;13.584;2022-09-09T02:28:19;10.20;;;5.97;;
23015;SDS011;11674;52.428;13.584;2022-09-09T02:30:55;8.35;;;4.90;;
23015;SDS011;11674;52.428;13.584;2022-09-09T02:33:35;8.10;;;5.60;;
23015;SDS011;11674;52.428;13.584;2022-09-09T02:36:11;6.80;;;4.88;;
23015;SDS011;11674;52.428;13.584;2022-09-09T02:38:52;8.30;;;5.63;;
23015;SDS011;11674;52.428;13.584;2022-09-09T02:41:32;9.93;;;5.03;;
23015;SDS011;11674;52.428;13.584;2022-09-09T02:44:12;6.88;;;5.38;;
23015;SDS011;11674;52.428;13.584;2022-09-09T02:46:54;7.35;;;5.05;;
23015;SDS011;11674;52.428;13.584;2022-09-09T02:52:06;9.65;;;5.13;;
23015;SDS011;11674;52.428;13.584;2022-09-09T02:54:40;7.15;;;5.45;;
23015;SDS011;11674;52.428;13.584;2022-09-09T02:59:51;6.25;;;5.18;;
23015;SDS011;11674;52.428;13.584;2022-09-09T03:02:23;8.35;;;5.07;;
23015;SDS011;11674;52.428;13.584;2022-09-09T03:05:01;6.80;;;4.80;;
23015;SDS011;11674;52.428;13.584;2022-09-09T03:07:33;8.20;;;5.07;;
23015;SDS011;11674;52.428;13.584;2022-09-09T03:09:59;15.63;;;5.28;;
23015;SDS011;11674;52.428;13.584;2022-09-09T03:12:31;6.53;;;4.88;;
23015;SDS011;11674;52.428;13.584;2022-09-09T03:15:03;7.43;;;4.95;;
23015;SDS011;11674;52.428;13.584;2022-09-09T03:17:28;5.43;;;4.50;;
23015;SDS011;11674;52.428;13.584;2022-09-09T03:20:01;7.80;;;5.07;;
23015;SDS011;11674;52.428;13.584;2022-09-09T03:22:35;6.10;;;4.50;;
23015;SDS011;11674;52.428;13.584;2022-09-09T03:25:08;7.70;;;4.53;;
23015;SDS011;11674;52.428;13.584;2022-09-09T03:27:35;6.25;;;4.75;;
23015;SDS011;11674;52.428;13.584;2022-09-09T03:30:07;6.97;;;5.28;;
23015;SDS011;11674;52.428;13.584;2022-09-09T03:32:39;9.50;;;5.20;;
23015;SDS011;11674;52.428;13.584;2022-09-09T03:35:05;6.07;;;4.75;;
23015;SDS011;11674;52.428;13.584;2022-09-09T03:37:37;8.50;;;4.85;;
23015;SDS011;11674;52.428;13.584;2022-09-09T03:40:10;8.95;;;4.80;;
23015;SDS011;11674;52.428;13.584;2022-09-09T03:42:44;6.07;;;4.68;;
23015;SDS011;11674;52.428;13.584;2022-09-09T03:45:10;7.63;;;4.80;;
23015;SDS011;11674;52.428;13.584;2022-09-09T03:47:42;8.68;;;4.60;;
23015;SDS011;11674;52.428;13.584;2022-09-09T03:50:14;8.57;;;4.18;;
23015;SDS011;11674;52.428;13.584;2022-09-09T03:52:46;6.03;;;4.60;;
23015;SDS011;11674;52.428;13.584;2022-09-09T03:55:18;7.35;;;4.30;;
23015;SDS011;11674;52.428;13.584;2022-09-09T03:57:50;12.48;;;4.55;;
23015;SDS011;11674;52.428;13.584;2022-09-09T04:00:22;6.85;;;4.80;;
23015;SDS011;11674;52.428;13.584;2022-09-09T04:02:54;6.97;;;4.03;;
23015;SDS011;11674;52.428;13.584;2022-09-09T04:05:19;8.70;;;4.70;;
23015;SDS011;11674;52.428;13.584;2022-09-09T04:07:51;6.93;;;4.50;;
23015;SDS011;11674;52.428;13.584;2022-09-09T04:10:29;5.47;;;4.10;;
23015;SDS011;11674;52.428;13.584;2022-09-09T04:13:02;5.38;;;4.00;;
23015;SDS011;11674;52.428;13.584;2022-09-09T04:15:29;7.30;;;4.55;;
23015;SDS011;11674;52.428;13.584;2022-09-09T04:18:02;9.75;;;4.82;;
23015;SDS011;11674;52.428;13.584;2022-09-09T04:20:34;8.07;;;4.78;;
23015;SDS011;11674;52.428;13.584;2022-09-09T04:23:06;5.22;;;3.83;;
23015;SDS011;11674;52.428;13.584;2022-09-09T04:25:31;7.30;;;4.40;;
23015;SDS011;11674;52.428;13.584;2022-09-09T04:28:03;5.57;;;4.00;;
23015;SDS011;11674;52.428;13.584;2022-09-09T04:30:35;5.35;;;4.20;;
23015;SDS011;11674;52.428;13.584;2022-09-09T04:33:08;6.72;;;4.00;;
23015;SDS011;11674;52.428;13.584;2022-09-09T04:35:34;6.38;;;4.32;;
23015;SDS011;11674;52.428;13.584;2022-09-09T04:38:06;12.30;;;4.53;;
23015;SDS011;11674;52.428;13.584;2022-09-09T04:40:39;7.15;;;3.97;;
23015;SDS011;11674;52.428;13.584;2022-09-09T04:43:11;6.35;;;3.55;;
23015;SDS011;11674;52.428;13.584;2022-09-09T04:45:36;8.95;;;3.90;;
23015;SDS011;11674;52.428;13.584;2022-09-09T04:48:08;4.65;;;3.53;;
23015;SDS011;11674;52.428;13.584;2022-09-09T04:50:40;8.27;;;4.30;;
23015;SDS011;11674;52.428;13.584;2022-09-09T04:53:12;6.97;;;3.75;;
23015;SDS011;11674;52.428;13.584;2022-09-09T04:55:38;9.63;;;4.32;;
23015;SDS011;11674;52.428;13.584;2022-09-09T04:58:10;10.80;;;4.03;;
23015;SDS011;11674;52.428;13.584;2022-09-09T05:00:42;6.55;;;4.07;;
23015;SDS011;11674;52.428;13.584;2022-09-09T05:03:07;7.70;;;4.15;;
23015;SDS011;11674;52.428;13.584;2022-09-09T05:05:40;9.10;;;3.85;;
23015;SDS011;11674;52.428;13.584;2022-09-09T05:08:12;8.57;;;4.00;;
23015;SDS011;11674;52.428;13.584;2022-09-09T05:10:38;8.73;;;3.58;;
23015;SDS011;11674;52.428;13.584;2022-09-09T05:13:11;5.10;;;3.78;;
23015;SDS011;11674;52.428;13.584;2022-09-09T05:15:50;4.50;;;3.30;;
23015;SDS011;11674;52.428;13.584;2022-09-09T05:18:23;11.47;;;3.90;;
23015;SDS011;11674;52.428;13.584;2022-09-09T05:20:58;5.93;;;3.65;;
23015;SDS011;11674;52.428;13.584;2022-09-09T05:23:31;6.38;;;3.90;;
23015;SDS011;11674;52.428;13.584;2022-09-09T05:25:58;6.03;;;3.55;;
23015;SDS011;11674;52.428;13.584;2022-09-09T05:28:30;8.07;;;4.13;;
23015;SDS011;11674;52.428;13.584;2022-09-09T05:31:03;5.90;;;3.50;;
23015;SDS011;11674;52.428;13.584;2022-09-09T05:33:37;4.70;;;3.55;;
23015;SDS011;11674;52.428;13.584;2022-09-09T05:36:07;6.68;;;3.08;;
23015;SDS011;11674;52.428;13.584;2022-09-09T05:38:45;4.68;;;3.13;;
23015;SDS011;11674;52.428;13.584;2022-09-09T05:41:18;8.75;;;4.60;;
23015;SDS011;11674;52.428;13.584;2022-09-09T05:43:53;10.68;;;4.28;;
23015;SDS011;11674;52.428;13.584;2022-09-09T05:46:20;4.47;;;3.28;;
23015;SDS011;11674;52.428;13.584;2022-09-09T05:48:55;7.75;;;3.80;;
23015;SDS011;11674;52.428;13.584;2022-09-09T05:51:30;7.13;;;3.30;;
23015;SDS011;11674;52.428;13.584;2022-09-09T05:54:06;8.00;;;3.83;;
23015;SDS011;11674;52.428;13.584;2022-09-09T05:56:41;3.40;;;2.90;;
23015;SDS011;11674;52.428;13.584;2022-09-09T05:59:14;8.00;;;3.58;;
23015;SDS011;11674;52.428;13.584;2022-09-09T06:01:39;6.93;;;3.47;;
23015;SDS011;11674;52.428;13.584;2022-09-09T06:04:20;5.22;;;2.95;;
23015;SDS011;11674;52.428;13.584;2022-09-09T06:06:52;8.27;;;3.10;;
23015;SDS011;11674;52.428;13.584;2022-09-09T06:09:24;5.07;;;3.00;;
23015;SDS011;11674;52.428;13.584;2022-09-09T06:11:49;7.72;;;3.03;;
23015;SDS011;11674;52.428;13.584;2022-09-09T06:14:22;5.88;;;3.10;;
23015;SDS011;11674;52.428;13.584;2022-09-09T06:16:57;10.95;;;3.63;;
23015;SDS011;11674;52.428;13.584;2022-09-09T06:19:29;7.03;;;3.03;;
23015;SDS011;11674;52.428;13.584;2022-09-09T06:21:56;6.57;;;3.05;;
23015;SDS011;11674;52.428;13.584;2022-09-09T06:24:31;5.60;;;2.83;;
23015;SDS011;11674;52.428;13.584;2022-09-09T06:27:03;4.38;;;2.60;;
23015;SDS011;11674;52.428;13.584;2022-09-09T06:29:35;5.38;;;2.88;;
23015;SDS011;11674;52.428;13.584;2022-09-09T06:32:02;5.88;;;2.80;;
23015;SDS011;11674;52.428;13.584;2022-09-09T06:34:34;7.82;;;3.78;;
23015;SDS011;11674;52.428;13.584;2022-09-09T06:37:06;6.45;;;2.63;;
23015;SDS011;11674;52.428;13.584;2022-09-09T06:39:37;5.55;;;3.30;;
23015;SDS011;11674;52.428;13.584;2022-09-09T06:42:09;8.27;;;3.05;;
23015;SDS011;11674;52.428;13.584;2022-09-09T06:45:05;8.23;;;3.17;;
23015;SDS011;11674;52.428;13.584;2022-09-09T06:47:46;3.33;;;2.35;;
23015;SDS011;11674;52.428;13.584;2022-09-09T06:50:18;10.05;;;2.70;;
23015;SDS011;11674;52.428;13.584;2022-09-09T06:52:50;6.43;;;2.97;;
23015;SDS011;11674;52.428;13.584;2022-09-09T06:55:15;5.35;;;2.10;;
23015;SDS011;11674;52.428;13.584;2022-09-09T06:57:47;4.90;;;2.17;;
23015;SDS011;11674;52.428;13.584;2022-09-09T07:00:22;3.17;;;2.05;;
23015;SDS011;11674;52.428;13.584;2022-09-09T07:02:54;8.25;;;2.45;;
23015;SDS011;11674;52.428;13.584;2022-09-09T07:05:20;5.85;;;2.22;;
23015;SDS011;11674;52.428;13.584;2022-09-09T07:07:52;5.95;;;2.08;;
23015;SDS011;11674;52.428;13.584;2022-09-09T07:10:26;6.20;;;2.00;;
23015;SDS011;11674;52.428;13.584;2022-09-09T07:13:00;10.02;;;2.47;;
23015;SDS011;11674;52.428;13.584;2022-09-09T07:15:26;11.20;;;2.20;;
23015;SDS011;11674;52.428;13.584;2022-09-09T07:18:00;12.18;;;2.20;;
23015;SDS011;11674;52.428;13.584;2022-09-09T07:20:33;12.75;;;2.13;;
23015;SDS011;11674;52.428;13.584;2022-09-09T07:22:58;6.95;;;2.05;;
23015;SDS011;11674;52.428;13.584;2022-09-09T07:25:30;9.38;;;2.45;;
23015;SDS011;11674;52.428;13.584;2022-09-09T07:28:02;6.15;;;2.00;;
23015;SDS011;11674;52.428;13.584;2022-09-09T07:30:27;8.50;;;2.30;;
23015;SDS011;11674;52.428;13.584;2022-09-09T07:32:59;7.00;;;1.77;;
23015;SDS011;11674;52.428;13.584;2022-09-09T07:35:24;6.05;;;2.30;;
23015;SDS011;11674;52.428;13.584;2022-09-09T07:37:56;9.77;;;2.10;;
23015;SDS011;11674;52.428;13.584;2022-09-09T07:40:28;7.45;;;1.95;;
23015;SDS011;11674;52.428;13.584;2022-09-09T07:42:53;11.00;;;2.00;;
23015;SDS011;11674;52.428;13.584;2022-09-09T07:45:25;3.63;;;1.52;;
23015;SDS011;11674;52.428;13.584;2022-09-09T07:47:57;7.38;;;2.00;;
23015;SDS011;11674;52.428;13.584;2022-09-09T07:50:23;6.18;;;1.92;;
23015;SDS011;11674;52.428;13.584;2022-09-09T07:52:55;4.40;;;1.92;;
23015;SDS011;11674;52.428;13.584;2022-09-09T07:55:21;8.50;;;1.98;;
23015;SDS011;11674;52.428;13.584;2022-09-09T07:57:53;7.10;;;1.80;;
23015;SDS011;11674;52.428;13.584;2022-09-09T08:00:25;10.25;;;1.70;;
23015;SDS011;11674;52.428;13.584;2022-09-09T08:02:54;6.43;;;1.95;;
23015;SDS011;11674;52.428;13.584;2022-09-09T08:05:26;8.95;;;2.75;;
23015;SDS011;11674;52.428;13.584;2022-09-09T08:07:58;4.75;;;1.65;;
23015;SDS011;11674;52.428;13.584;2022-09-09T08:10:30;4.22;;;1.48;;
23015;SDS011;11674;52.428;13.584;2022-09-09T08:13:02;5.07;;;1.50;;
23015;SDS011;11674;52.428;13.584;2022-09-09T08:15:27;4.25;;;1.70;;
23015;SDS011;11674;52.428;13.584;2022-09-09T08:17:59;2.95;;;1.50;;
23015;SDS011;11674;52.428;13.584;2022-09-09T08:20:31;3.47;;;1.55;;
23015;SDS011;11674;52.428;13.584;2022-09-09T08:23:03;8.02;;;1.80;;
23015;SDS011;11674;52.428;13.584;2022-09-09T08:25:35;8.07;;;1.83;;
23015;SDS011;11674;52.428;13.584;2022-09-09T08:28:00;6.47;;;1.85;;
23015;SDS011;11674;52.428;13.584;2022-09-09T08:30:33;4.13;;;1.52;;
23015;SDS011;11674;52.428;13.584;2022-09-09T08:33:05;5.07;;;1.73;;
23015;SDS011;11674;52.428;13.584;2022-09-09T08:35:37;5.72;;;2.08;;
23015;SDS011;11674;52.428;13.584;2022-09-09T08:38:09;2.22;;;1.40;;
23015;SDS011;11674;52.428;13.584;2022-09-09T08:40:42;9.70;;;1.65;;
23015;SDS011;11674;52.428;13.584;2022-09-09T08:43:19;2.58;;;1.20;;
23015;SDS011;11674;52.428;13.584;2022-09-09T08:45:54;4.38;;;1.67;;
23015;SDS011;11674;52.428;13.584;2022-09-09T08:51:42;5.03;;;1.50;;
23015;SDS011;11674;52.428;13.584;2022-09-09T08:54:14;6.10;;;1.58;;
23015;SDS011;11674;52.428;13.584;2022-09-09T08:56:46;3.13;;;1.30;;
23015;SDS011;11674;52.428;13.584;2022-09-09T08:59:18;5.35;;;1.40;;
23015;SDS011;11674;52.428;13.584;2022-09-09T09:13:08;4.63;;;1.48;;
23015;SDS011;11674;52.428;13.584;2022-09-09T09:15:46;7.30;;;1.77;;
23015;SDS011;11674;52.428;13.584;2022-09-09T09:18:25;3.53;;;1.30;;
23015;SDS011;11674;52.428;13.584;2022-09-09T09:21:00;3.35;;;1.25;;
23015;SDS011;11674;52.428;13.584;2022-09-09T09:23:57;4.00;;;1.40;;
23015;SDS011;11674;52.428;13.584;2022-09-09T09:26:33;7.57;;;1.75;;
23015;SDS011;11674;52.428;13.584;2022-09-09T09:29:11;4.80;;;1.23;;
23015;SDS011;11674;52.428;13.584;2022-09-09T09:31:47;7.40;;;1.63;;
23015;SDS011;11674;52.428;13.584;2022-09-09T09:34:24;4.88;;;1.30;;
23015;SDS011;11674;52.428;13.584;2022-09-09T09:36:54;5.18;;;1.52;;
23015;SDS011;11674;52.428;13.584;2022-09-09T09:39:31;5.05;;;1.67;;
23015;SDS011;11674;52.428;13.584;2022-09-09T09:42:09;4.25;;;1.27;;
23015;SDS011;11674;52.428;13.584;2022-09-09T09:44:44;8.25;;;1.20;;
23015;SDS011;11674;52.428;13.584;2022-09-09T09:47:18;5.95;;;1.27;;
23015;SDS011;11674;52.428;13.584;2022-09-09T09:50:02;8.50;;;3.22;;
23015;SDS011;11674;52.428;13.584;2022-09-09T09:52:36;12.45;;;5.90;;
23015;SDS011;11674;52.428;13.584;2022-09-09T09:55:12;4.88;;;1.20;;
23015;SDS011;11674;52.428;13.584;2022-09-09T09:57:45;14.77;;;5.93;;
23015;SDS011;11674;52.428;13.584;2022-09-09T10:00:18;7.75;;;3.40;;
23015;SDS011;11674;52.428;13.584;2022-09-09T10:02:52;9.63;;;5.00;;
23015;SDS011;11674;52.428;13.584;2022-09-09T10:05:30;5.75;;;1.95;;
23015;SDS011;11674;52.428;13.584;2022-09-09T10:13:50;3.63;;;2.20;;
23015;SDS011;11674;52.428;13.584;2022-09-09T10:22:07;4.63;;;2.00;;
23015;SDS011;11674;52.428;13.584;2022-09-09T10:25:01;3.45;;;1.42;;
23015;SDS011;11674;52.428;13.584;2022-09-09T10:27:47;3.15;;;1.40;;
23015;SDS011;11674;52.428;13.584;2022-09-09T10:33:10;3.65;;;1.27;;
23015;SDS011;11674;52.428;13.584;2022-09-09T10:38:29;3.63;;;1.27;;
23015;SDS011;11674;52.428;13.584;2022-09-09T10:41:19;8.27;;;4.13;;
23015;SDS011;11674;52.428;13.584;2022-09-09T10:55:18;8.00;;;1.77;;
23015;SDS011;11674;52.428;13.584;2022-09-09T10:57:54;3.65;;;1.50;;
23015;SDS011;11674;52.428;13.584;2022-09-09T11:03:09;2.50;;;1.00;;
23015;SDS011;11674;52.428;13.584;2022-09-09T11:05:52;3.67;;;1.60;;
23015;SDS011;11674;52.428;13.584;2022-09-09T11:08:29;2.58;;;1.17;;
23015;SDS011;11674;52.428;13.584;2022-09-09T11:11:03;2.33;;;1.13;;
23015;SDS011;11674;52.428;13.584;2022-09-09T11:13:52;7.03;;;1.23;;
23015;SDS011;11674;52.428;13.584;2022-09-09T11:19:15;11.52;;;5.15;;
23015;SDS011;11674;52.428;13.584;2022-09-09T11:21:55;3.38;;;1.27;;
23015;SDS011;11674;52.428;13.584;2022-09-09T11:27:18;5.60;;;1.27;;
23015;SDS011;11674;52.428;13.584;2022-09-09T11:33:14;3.63;;;1.00;;
23015;SDS011;11674;52.428;13.584;2022-09-09T11:36:06;2.92;;;1.02;;
23015;SDS011;11674;52.428;13.584;2022-09-09T11:42:07;4.78;;;1.00;;
23015;SDS011;11674;52.428;13.584;2022-09-09T11:44:49;4.28;;;1.00;;
23015;SDS011;11674;52.428;13.584;2022-09-09T11:47:28;3.75;;;1.20;;
23015;SDS011;11674;52.428;13.584;2022-09-09T11:50:08;3.30;;;0.70;;
23015;SDS011;11674;52.428;13.584;2022-09-09T11:53:03;2.10;;;0.80;;
23015;SDS011;11674;52.428;13.584;2022-09-09T11:55:36;2.05;;;0.68;;
23015;SDS011;11674;52.428;13.584;2022-09-09T11:58:05;3.05;;;0.85;;
23015;SDS011;11674;52.428;13.584;2022-09-09T12:00:48;1.85;;;0.70;;
23015;SDS011;11674;52.428;13.584;2022-09-09T12:06:28;11.23;;;5.20;;
23015;SDS011;11674;52.428;13.584;2022-09-09T12:09:07;3.30;;;1.85;;
23015;SDS011;11674;52.428;13.584;2022-09-09T12:11:47;2.85;;;1.50;;
23015;SDS011;11674;52.428;13.584;2022-09-09T12:14:19;6.63;;;1.40;;
23015;SDS011;11674;52.428;13.584;2022-09-09T12:20:06;5.97;;;1.40;;
23015;SDS011;11674;52.428;13.584;2022-09-09T12:22:51;2.78;;;0.88;;
23015;SDS011;11674;52.428;13.584;2022-09-09T12:28:44;9.00;;;4.60;;
23015;SDS011;11674;52.428;13.584;2022-09-09T12:34:11;6.88;;;2.78;;
23015;SDS011;11674;52.428;13.584;2022-09-09T12:36:46;6.55;;;2.40;;
23015;SDS011;11674;52.428;13.584;2022-09-09T12:39:29;3.42;;;1.90;;
23015;SDS011;11674;52.428;13.584;2022-09-09T12:42:19;7.20;;;1.10;;
23015;SDS011;11674;52.428;13.584;2022-09-09T12:44:56;2.40;;;0.73;;
23015;SDS011;11674;52.428;13.584;2022-09-09T12:50:18;2.28;;;0.60;;
23015;SDS011;11674;52.428;13.584;2022-09-09T12:52:54;1.52;;;0.68;;
23015;SDS011;11674;52.428;13.584;2022-09-09T12:55:21;2.45;;;0.57;;
23015;SDS011;11674;52.428;13.584;2022-09-09T12:57:56;2.60;;;1.00;;
23015;SDS011;11674;52.428;13.584;2022-09-09T13:00:24;1.75;;;0.47;;
23015;SDS011;11674;52.428;13.584;2022-09-09T13:02:58;3.28;;;0.68;;
23015;SDS011;11674;52.428;13.584;2022-09-09T13:05:35;3.15;;;0.68;;
23015;SDS011;11674;52.428;13.584;2022-09-09T13:08:10;4.97;;;0.77;;
23015;SDS011;11674;52.428;13.584;2022-09-09T13:10:47;1.75;;;0.65;;
23015;SDS011;11674;52.428;13.584;2022-09-09T13:13:23;1.30;;;0.65;;
23015;SDS011;11674;52.428;13.584;2022-09-09T13:15:59;36.10;;;19.92;;
23015;SDS011;11674;52.428;13.584;2022-09-09T13:18:35;17.90;;;8.77;;
23015;SDS011;11674;52.428;13.584;2022-09-09T13:21:11;2.72;;;0.93;;
23015;SDS011;11674;52.428;13.584;2022-09-09T13:23:47;3.42;;;0.85;;
23015;SDS011;11674;52.428;13.584;2022-09-09T13:26:22;2.58;;;0.60;;
23015;SDS011;11674;52.428;13.584;2022-09-09T13:29:07;4.00;;;0.73;;
23015;SDS011;11674;52.428;13.584;2022-09-09T13:31:48;5.03;;;0.82;;
23015;SDS011;11674;52.428;13.584;2022-09-09T13:34:28;1.70;;;0.98;;
23015;SDS011;11674;52.428;13.584;2022-09-09T13:37:02;4.93;;;2.35;;
23015;SDS011;11674;52.428;13.584;2022-09-09T13:39:53;3.58;;;0.80;;
23015;SDS011;11674;52.428;13.584;2022-09-09T13:42:27;11.25;;;6.25;;
23015;SDS011;11674;52.428;13.584;2022-09-09T13:45:01;4.85;;;2.47;;
23015;SDS011;11674;52.428;13.584;2022-09-09T13:47:34;1.85;;;1.10;;
23015;SDS011;11674;52.428;13.584;2022-09-09T13:50:20;10.32;;;4.32;;
23015;SDS011;11674;52.428;13.584;2022-09-09T13:52:59;3.20;;;1.08;;
23015;SDS011;11674;52.428;13.584;2022-09-09T13:55:31;3.15;;;1.52;;
23015;SDS011;11674;52.428;13.584;2022-09-09T13:58:03;2.75;;;0.90;;
23015;SDS011;11674;52.428;13.584;2022-09-09T14:00:35;4.90;;;1.60;;
23015;SDS011;11674;52.428;13.584;2022-09-09T14:03:07;4.13;;;1.20;;
23015;SDS011;11674;52.428;13.584;2022-09-09T14:05:39;6.45;;;0.98;;
23015;SDS011;11674;52.428;13.584;2022-09-09T14:08:15;4.20;;;0.98;;
23015;SDS011;11674;52.428;13.584;2022-09-09T14:10:54;2.55;;;0.82;;
23015;SDS011;11674;52.428;13.584;2022-09-09T14:13:26;1.40;;;1.00;;
23015;SDS011;11674;52.428;13.584;2022-09-09T14:15:58;5.28;;;1.73;;
23015;SDS011;11674;52.428;13.584;2022-09-09T14:18:30;3.83;;;1.20;;
23015;SDS011;11674;52.428;13.584;2022-09-09T14:21:02;2.55;;;0.85;;
23015;SDS011;11674;52.428;13.584;2022-09-09T14:23:34;4.45;;;1.75;;
23015;SDS011;11674;52.428;13.584;2022-09-09T14:26:06;7.78;;;1.63;;
23015;SDS011;11674;52.428;13.584;2022-09-09T14:28:38;1.95;;;1.33;;
23015;SDS011;11674;52.428;13.584;2022-09-09T14:31:10;6.10;;;3.10;;
23015;SDS011;11674;52.428;13.584;2022-09-09T14:33:42;3.88;;;2.15;;
23015;SDS011;11674;52.428;13.584;2022-09-09T14:36:14;2.20;;;0.80;;
23015;SDS011;11674;52.428;13.584;2022-09-09T14:38:46;5.00;;;1.85;;
23015;SDS011;11674;52.428;13.584;2022-09-09T14:41:19;3.35;;;0.95;;
23015;SDS011;11674;52.428;13.584;2022-09-09T14:43:51;3.05;;;1.60;;
23015;SDS011;11674;52.428;13.584;2022-09-09T14:46:23;2.13;;;0.70;;
23015;SDS011;11674;52.428;13.584;2022-09-09T14:49:02;3.45;;;0.90;;
23015;SDS011;11674;52.428;13.584;2022-09-09T14:51:34;3.30;;;0.80;;
23015;SDS011;11674;52.428;13.584;2022-09-09T14:54:06;2.30;;;1.05;;
23015;SDS011;11674;52.428;13.584;2022-09-09T14:56:38;2.05;;;0.70;;
23015;SDS011;11674;52.428;13.584;2022-09-09T14:59:10;3.67;;;0.88;;
23015;SDS011;11674;52.428;13.584;2022-09-09T15:01:42;2.30;;;0.90;;
23015;SDS011;11674;52.428;13.584;2022-09-09T15:04:14;3.40;;;0.90;;
23015;SDS011;11674;52.428;13.584;2022-09-09T15:06:46;2.88;;;1.05;;
23015;SDS011;11674;52.428;13.584;2022-09-09T15:09:18;6.13;;;1.13;;
23015;SDS011;11674;52.428;13.584;2022-09-09T15:11:50;6.75;;;2.42;;
23015;SDS011;11674;52.428;13.584;2022-09-09T15:14:22;2.05;;;1.02;;
23015;SDS011;11674;52.428;13.584;2022-09-09T15:16:54;2.90;;;1.00;;
23015;SDS011;11674;52.428;13.584;2022-09-09T15:19:26;2.08;;;0.70;;
23015;SDS011;11674;52.428;13.584;2022-09-09T15:21:58;3.72;;;1.80;;
23015;SDS011;11674;52.428;13.584;2022-09-09T15:24:30;2.30;;;0.90;;
23015;SDS011;11674;52.428;13.584;2022-09-09T15:27:05;2.63;;;0.88;;
23015;SDS011;11674;52.428;13.584;2022-09-09T15:29:37;4.25;;;1.00;;
23015;SDS011;11674;52.428;13.584;2022-09-09T15:32:09;3.45;;;1.08;;
23015;SDS011;11674;52.428;13.584;2022-09-09T15:34:41;1.73;;;0.90;;
23015;SDS011;11674;52.428;13.584;2022-09-09T15:37:13;3.45;;;1.25;;
23015;SDS011;11674;52.428;13.584;2022-09-09T15:39:45;3.20;;;1.42;;
23015;SDS011;11674;52.428;13.584;2022-09-09T15:42:17;3.75;;;1.00;;
23015;SDS011;11674;52.428;13.584;2022-09-09T15:44:49;8.00;;;3.83;;
23015;SDS011;11674;52.428;13.584;2022-09-09T15:47:21;4.32;;;1.40;;
23015;SDS011;11674;52.428;13.584;2022-09-09T15:49:53;3.97;;;1.75;;
23015;SDS011;11674;52.428;13.584;2022-09-09T15:52:25;3.42;;;1.50;;
23015;SDS011;11674;52.428;13.584;2022-09-09T15:54:57;3.45;;;1.50;;
23015;SDS011;11674;52.428;13.584;2022-09-09T15:57:29;2.75;;;0.82;;
23015;SDS011;11674;52.428;13.584;2022-09-09T16:00:02;8.65;;;2.70;;
23015;SDS011;11674;52.428;13.584;2022-09-09T16:02:35;7.90;;;1.88;;
23015;SDS011;11674;52.428;13.584;2022-09-09T16:05:07;9.35;;;3.58;;
23015;SDS011;11674;52.428;13.584;2022-09-09T16:07:39;1.65;;;0.82;;
23015;SDS011;11674;52.428;13.584;2022-09-09T16:10:04;9.77;;;3.30;;
23015;SDS011;11674;52.428;13.584;2022-09-09T16:12:37;5.28;;;2.13;;
23015;SDS011;11674;52.428;13.584;2022-09-09T16:15:09;5.65;;;3.22;;
23015;SDS011;11674;52.428;13.584;2022-09-09T16:17:41;8.60;;;3.42;;
23015;SDS011;11674;52.428;13.584;2022-09-09T16:20:13;5.25;;;1.63;;
23015;SDS011;11674;52.428;13.584;2022-09-09T16:22:45;3.58;;;1.65;;
23015;SDS011;11674;52.428;13.584;2022-09-09T16:25:17;3.80;;;2.15;;
23015;SDS011;11674;52.428;13.584;2022-09-09T16:27:49;3.65;;;1.38;;
23015;SDS011;11674;52.428;13.584;2022-09-09T16:30:21;1.65;;;0.80;;
23015;SDS011;11674;52.428;13.584;2022-09-09T16:32:46;3.13;;;1.30;;
23015;SDS011;11674;52.428;13.584;2022-09-09T16:35:18;4.03;;;1.10;;
23015;SDS011;11674;52.428;13.584;2022-09-09T16:37:50;4.70;;;0.85;;
23015;SDS011;11674;52.428;13.584;2022-09-09T16:40:22;2.25;;;0.90;;
23015;SDS011;11674;52.428;13.584;2022-09-09T16:42:54;1.65;;;0.70;;
23015;SDS011;11674;52.428;13.584;2022-09-09T16:45:19;3.43;;;1.10;;
23015;SDS011;11674;52.428;13.584;2022-09-09T16:47:51;3.00;;;0.82;;
23015;SDS011;11674;52.428;13.584;2022-09-09T16:50:23;4.63;;;0.85;;
23015;SDS011;11674;52.428;13.584;2022-09-09T16:52:55;4.80;;;0.90;;
23015;SDS011;11674;52.428;13.584;2022-09-09T16:55:27;3.42;;;0.80;;
23015;SDS011;11674;52.428;13.584;2022-09-09T16:57:59;4.07;;;1.00;;
23015;SDS011;11674;52.428;13.584;2022-09-09T17:00:31;1.40;;;0.60;;
23015;SDS011;11674;52.428;13.584;2022-09-09T17:03:03;3.22;;;0.80;;
23015;SDS011;11674;52.428;13.584;2022-09-09T17:05:29;2.47;;;0.60;;
23015;SDS011;11674;52.428;13.584;2022-09-09T17:08:01;4.30;;;0.77;;
23015;SDS011;11674;52.428;13.584;2022-09-09T17:10:33;4.43;;;0.80;;
23015;SDS011;11674;52.428;13.584;2022-09-09T17:13:05;2.40;;;0.75;;
23015;SDS011;11674;52.428;13.584;2022-09-09T17:15:40;3.65;;;0.70;;
23015;SDS011;11674;52.428;13.584;2022-09-09T17:18:07;2.20;;;0.50;;
23015;SDS011;11674;52.428;13.584;2022-09-09T17:20:38;0.80;;;0.52;;
23015;SDS011;11674;52.428;13.584;2022-09-09T17:23:11;1.42;;;0.93;;
23015;SDS011;11674;52.428;13.584;2022-09-09T17:25:43;2.05;;;0.70;;